sensor_id;sensor_type;location;lat;lon;timestamp;pressure;altitude;pressure_sealevel;temperature;humidity
56400;BME280;42298;53.638;9.876;2023-03-18T00:02:11;100512.34;;;14.69;49.84
56400;BME280;42298;53.638;9.876;2023-03-18T00:04:38;100508.41;;;14.70;50.00
56400;BME280;42298;53.638;9.876;2023-03-18T00:07:05;100514.44;;;14.72;50.32
56400;BME280;42298;53.638;9.876;2023-03-18T00:09:30;100485.84;;;14.59;50.23
56400;BME280;42298;53.638;9.876;2023-03-18T00:11:56;100498.97;;;14.71;49.75
56400;BME280;42298;53.638;9.876;2023-03-18T00:14:23;100485.78;;;14.68;49.82
56400;BME280;42298;53.638;9.876;2023-03-18T00:16:48;100485.31;;;14.66;50.25
56400;BME280;42298;53.638;9.876;2023-03-18T00:19:15;100512.13;;;14.74;50.19
56400;BME280;42298;53.638;9.876;2023-03-18T00:21:41;100489.91;;;14.62;50.00
56400;BME280;42298;53.638;9.876;2023-03-18T00:24:07;100494.06;;;14.56;50.17
56400;BME280;42298;53.638;9.876;2023-03-18T00:26:33;100490.81;;;14.54;50.41
56400;BME280;42298;53.638;9.876;2023-03-18T00:28:59;100497.63;;;14.56;50.07
56400;BME280;42298;53.638;9.876;2023-03-18T00:31:25;100493.25;;;14.55;50.10
56400;BME280;42298;53.638;9.876;2023-03-18T00:33:51;100507.25;;;14.59;50.48
56400;BME280;42298;53.638;9.876;2023-03-18T00:36:19;100511.72;;;14.51;50.34
56400;BME280;42298;53.638;9.876;2023-03-18T00:38:50;100516.09;;;14.52;50.18
56400;BME280;42298;53.638;9.876;2023-03-18T00:41:17;100507.44;;;14.54;50.12
56400;BME280;42298;53.638;9.876;2023-03-18T00:43:45;100506.56;;;14.62;49.78
56400;BME280;42298;53.638;9.876;2023-03-18T00:46:19;100506.22;;;14.63;49.93
56400;BME280;42298;53.638;9.876;2023-03-18T00:48:46;100489.59;;;14.63;49.64
56400;BME280;42298;53.638;9.876;2023-03-18T00:51:13;100498.63;;;14.72;49.23
56400;BME280;42298;53.638;9.876;2023-03-18T00:53:45;100497.31;;;14.70;49.83
56400;BME280;42298;53.638;9.876;2023-03-18T00:56:11;100488.56;;;14.68;49.38
56400;BME280;42298;53.638;9.876;2023-03-18T00:58:38;100501.97;;;14.78;49.59
56400;BME280;42298;53.638;9.876;2023-03-18T01:01:05;100490.06;;;14.77;49.09
56400;BME280;42298;53.638;9.876;2023-03-18T01:03:31;100511.81;;;14.87;49.46
56400;BME280;42298;53.638;9.876;2023-03-18T01:05:58;100515.03;;;14.89;49.18
56400;BME280;42298;53.638;9.876;2023-03-18T01:08:24;100514.25;;;14.89;49.25
56400;BME280;42298;53.638;9.876;2023-03-18T01:10:51;100512.03;;;14.94;48.86
56400;BME280;42298;53.638;9.876;2023-03-18T01:13:16;100505.09;;;14.88;49.11
56400;BME280;42298;53.638;9.876;2023-03-18T01:15:42;100499.78;;;14.83;49.64
56400;BME280;42298;53.638;9.876;2023-03-18T01:18:08;100515.66;;;14.95;48.89
56400;BME280;42298;53.638;9.876;2023-03-18T01:20:36;100506.50;;;14.94;49.31
56400;BME280;42298;53.638;9.876;2023-03-18T01:23:03;100504.22;;;14.96;49.10
56400;BME280;42298;53.638;9.876;2023-03-18T01:25:28;100497.38;;;14.94;48.54
56400;BME280;42298;53.638;9.876;2023-03-18T01:27:54;100510.53;;;14.97;49.00
56400;BME280;42298;53.638;9.876;2023-03-18T01:30:21;100513.44;;;15.00;49.70
56400;BME280;42298;53.638;9.876;2023-03-18T01:32:48;100508.94;;;14.96;49.46
56400;BME280;42298;53.638;9.876;2023-03-18T01:35:13;100509.41;;;14.98;49.55
56400;BME280;42298;53.638;9.876;2023-03-18T01:37:39;100519.81;;;15.01;49.27
56400;BME280;42298;53.638;9.876;2023-03-18T01:40:06;100530.91;;;15.13;49.09
56400;BME280;42298;53.638;9.876;2023-03-18T01:42:32;100504.31;;;15.00;49.38
56400;BME280;42298;53.638;9.876;2023-03-18T01:48:04;100496.44;;;14.90;49.12
56400;BME280;42298;53.638;9.876;2023-03-18T01:50:33;100504.31;;;15.00;49.62
56400;BME280;42298;53.638;9.876;2023-03-18T01:53:05;100518.19;;;15.12;49.60
56400;BME280;42298;53.638;9.876;2023-03-18T01:55:33;100503.28;;;15.04;49.56
56400;BME280;42298;53.638;9.876;2023-03-18T01:58:02;100519.69;;;15.09;49.52
56400;BME280;42298;53.638;9.876;2023-03-18T02:00:34;100511.25;;;15.06;49.68
56400;BME280;42298;53.638;9.876;2023-03-18T02:03:02;100511.94;;;15.03;50.06
56400;BME280;42298;53.638;9.876;2023-03-18T02:05:29;100521.06;;;15.03;49.78
56400;BME280;42298;53.638;9.876;2023-03-18T02:07:54;100522.09;;;14.99;49.91
56400;BME280;42298;53.638;9.876;2023-03-18T02:10:23;100521.28;;;14.98;49.70
56400;BME280;42298;53.638;9.876;2023-03-18T02:13:08;100530.66;;;15.06;50.06
56400;BME280;42298;53.638;9.876;2023-03-18T02:15:39;100530.56;;;15.02;50.32
56400;BME280;42298;53.638;9.876;2023-03-18T02:18:12;100532.50;;;15.02;50.48
56400;BME280;42298;53.638;9.876;2023-03-18T02:20:50;100540.28;;;15.08;50.54
56400;BME280;42298;53.638;9.876;2023-03-18T02:26:57;100533.53;;;14.97;51.82
56400;BME280;42298;53.638;9.876;2023-03-18T02:29:25;100533.19;;;14.87;52.30
56400;BME280;42298;53.638;9.876;2023-03-18T02:31:53;100530.97;;;14.92;52.68
56400;BME280;42298;53.638;9.876;2023-03-18T02:34:21;100542.91;;;14.93;53.89
56400;BME280;42298;53.638;9.876;2023-03-18T02:36:47;100529.47;;;14.83;53.76
56400;BME280;42298;53.638;9.876;2023-03-18T02:39:14;100539.41;;;14.84;53.79
56400;BME280;42298;53.638;9.876;2023-03-18T02:41:40;100525.00;;;14.58;54.57
56400;BME280;42298;53.638;9.876;2023-03-18T02:44:06;100540.06;;;14.69;55.17
56400;BME280;42298;53.638;9.876;2023-03-18T02:46:55;100539.84;;;14.74;55.32
56400;BME280;42298;53.638;9.876;2023-03-18T02:49:23;100542.97;;;14.72;55.53
56400;BME280;42298;53.638;9.876;2023-03-18T02:51:49;100531.50;;;14.62;55.54
56400;BME280;42298;53.638;9.876;2023-03-18T02:54:28;100548.72;;;14.67;55.42
56400;BME280;42298;53.638;9.876;2023-03-18T02:56:54;100521.84;;;14.47;55.92
56400;BME280;42298;53.638;9.876;2023-03-18T02:59:20;100533.19;;;14.54;55.95
56400;BME280;42298;53.638;9.876;2023-03-18T03:01:48;100544.75;;;14.56;56.50
56400;BME280;42298;53.638;9.876;2023-03-18T03:04:16;100541.56;;;14.46;56.32
56400;BME280;42298;53.638;9.876;2023-03-18T03:06:43;100535.25;;;14.45;57.00
56400;BME280;42298;53.638;9.876;2023-03-18T03:09:11;100541.03;;;14.52;57.00
56400;BME280;42298;53.638;9.876;2023-03-18T03:11:38;100532.69;;;14.40;57.52
56400;BME280;42298;53.638;9.876;2023-03-18T03:14:04;100537.47;;;14.31;57.74
56400;BME280;42298;53.638;9.876;2023-03-18T03:16:29;100525.47;;;14.27;57.97
56400;BME280;42298;53.638;9.876;2023-03-18T03:18:55;100523.19;;;14.29;57.96
56400;BME280;42298;53.638;9.876;2023-03-18T03:21:21;100531.59;;;14.33;58.18
56400;BME280;42298;53.638;9.876;2023-03-18T03:23:48;100531.94;;;14.31;57.75
56400;BME280;42298;53.638;9.876;2023-03-18T03:26:14;100537.63;;;14.35;58.42
56400;BME280;42298;53.638;9.876;2023-03-18T03:28:40;100533.31;;;14.25;58.55
56400;BME280;42298;53.638;9.876;2023-03-18T03:31:06;100538.97;;;14.29;58.70
56400;BME280;42298;53.638;9.876;2023-03-18T03:33:33;100536.06;;;14.25;58.95
56400;BME280;42298;53.638;9.876;2023-03-18T03:35:58;100524.53;;;14.23;58.91
56400;BME280;42298;53.638;9.876;2023-03-18T03:38:24;100531.06;;;14.39;58.74
56400;BME280;42298;53.638;9.876;2023-03-18T03:40:50;100513.84;;;14.34;58.80
56400;BME280;42298;53.638;9.876;2023-03-18T03:43:18;100512.59;;;14.43;58.15
56400;BME280;42298;53.638;9.876;2023-03-18T03:45:44;100500.19;;;14.29;59.18
56400;BME280;42298;53.638;9.876;2023-03-18T03:48:10;100531.66;;;14.45;58.58
56400;BME280;42298;53.638;9.876;2023-03-18T03:50:38;100509.34;;;14.29;59.02
56400;BME280;42298;53.638;9.876;2023-03-18T03:53:04;100522.06;;;14.22;59.52
56400;BME280;42298;53.638;9.876;2023-03-18T03:55:30;100528.59;;;14.26;60.15
56400;BME280;42298;53.638;9.876;2023-03-18T03:57:56;100516.47;;;14.10;59.56
56400;BME280;42298;53.638;9.876;2023-03-18T04:00:22;100540.97;;;14.20;60.19
56400;BME280;42298;53.638;9.876;2023-03-18T04:02:52;100526.25;;;14.07;60.44
56400;BME280;42298;53.638;9.876;2023-03-18T04:05:20;100537.72;;;14.18;60.76
56400;BME280;42298;53.638;9.876;2023-03-18T04:07:46;100542.34;;;14.14;60.23
56400;BME280;42298;53.638;9.876;2023-03-18T04:10:15;100527.25;;;14.03;59.92
56400;BME280;42298;53.638;9.876;2023-03-18T04:12:42;100548.63;;;14.02;60.82
56400;BME280;42298;53.638;9.876;2023-03-18T04:15:10;100529.50;;;13.89;61.39
56400;BME280;42298;53.638;9.876;2023-03-18T04:17:35;100532.63;;;13.87;61.57
56400;BME280;42298;53.638;9.876;2023-03-18T04:20:01;100539.09;;;13.91;60.83
56400;BME280;42298;53.638;9.876;2023-03-18T04:22:27;100553.94;;;14.07;61.23
56400;BME280;42298;53.638;9.876;2023-03-18T04:24:53;100546.47;;;14.08;61.45
56400;BME280;42298;53.638;9.876;2023-03-18T04:27:19;100539.50;;;14.02;61.03
56400;BME280;42298;53.638;9.876;2023-03-18T04:29:47;100551.44;;;13.94;61.83
56400;BME280;42298;53.638;9.876;2023-03-18T04:32:13;100540.09;;;13.87;61.28
56400;BME280;42298;53.638;9.876;2023-03-18T04:34:38;100541.94;;;13.83;61.76
56400;BME280;42298;53.638;9.876;2023-03-18T04:37:05;100537.94;;;13.92;61.70
56400;BME280;42298;53.638;9.876;2023-03-18T04:39:32;100548.22;;;13.92;61.72
56400;BME280;42298;53.638;9.876;2023-03-18T04:42:03;100546.13;;;13.89;62.02
56400;BME280;42298;53.638;9.876;2023-03-18T04:44:29;100541.38;;;13.89;62.02
56400;BME280;42298;53.638;9.876;2023-03-18T04:46:54;100540.44;;;13.85;61.92
56400;BME280;42298;53.638;9.876;2023-03-18T04:49:20;100531.66;;;13.83;62.21
56400;BME280;42298;53.638;9.876;2023-03-18T04:51:45;100542.38;;;13.85;62.26
56400;BME280;42298;53.638;9.876;2023-03-18T04:54:11;100557.53;;;13.87;62.62
56400;BME280;42298;53.638;9.876;2023-03-18T04:56:36;100559.75;;;13.94;62.24
56400;BME280;42298;53.638;9.876;2023-03-18T04:59:03;100549.22;;;13.87;62.45
56400;BME280;42298;53.638;9.876;2023-03-18T05:01:28;100550.25;;;14.03;62.48
56400;BME280;42298;53.638;9.876;2023-03-18T05:03:53;100565.63;;;13.92;62.85
56400;BME280;42298;53.638;9.876;2023-03-18T05:06:26;100567.84;;;13.99;62.83
56400;BME280;42298;53.638;9.876;2023-03-18T05:08:52;100574.47;;;13.86;63.05
56400;BME280;42298;53.638;9.876;2023-03-18T05:11:19;100573.84;;;13.80;63.32
56400;BME280;42298;53.638;9.876;2023-03-18T05:13:46;100579.03;;;13.82;63.90
56400;BME280;42298;53.638;9.876;2023-03-18T05:16:12;100569.44;;;13.79;63.62
56400;BME280;42298;53.638;9.876;2023-03-18T05:18:38;100579.72;;;13.79;64.52
56400;BME280;42298;53.638;9.876;2023-03-18T05:21:06;100563.75;;;13.76;64.45
56400;BME280;42298;53.638;9.876;2023-03-18T05:23:31;100567.50;;;13.80;64.05
56400;BME280;42298;53.638;9.876;2023-03-18T05:25:57;100548.66;;;13.73;64.78
56400;BME280;42298;53.638;9.876;2023-03-18T05:28:24;100565.16;;;13.90;64.13
56400;BME280;42298;53.638;9.876;2023-03-18T05:30:50;100561.41;;;13.86;64.55
56400;BME280;42298;53.638;9.876;2023-03-18T05:33:16;100559.00;;;13.85;64.50
56400;BME280;42298;53.638;9.876;2023-03-18T05:35:42;100566.78;;;13.91;64.49
56400;BME280;42298;53.638;9.876;2023-03-18T05:38:07;100567.44;;;13.88;64.75
56400;BME280;42298;53.638;9.876;2023-03-18T05:40:34;100576.69;;;13.92;64.67
56400;BME280;42298;53.638;9.876;2023-03-18T05:43:00;100570.81;;;13.94;64.23
56400;BME280;42298;53.638;9.876;2023-03-18T05:45:26;100572.47;;;13.95;64.74
56400;BME280;42298;53.638;9.876;2023-03-18T05:47:51;100575.81;;;14.00;64.25
56400;BME280;42298;53.638;9.876;2023-03-18T05:50:37;100564.75;;;14.00;63.95
56400;BME280;42298;53.638;9.876;2023-03-18T05:53:04;100572.13;;;13.96;64.38
56400;BME280;42298;53.638;9.876;2023-03-18T05:55:30;100588.00;;;14.08;64.70
56400;BME280;42298;53.638;9.876;2023-03-18T05:57:56;100579.59;;;13.96;64.68
56400;BME280;42298;53.638;9.876;2023-03-18T06:00:23;100587.38;;;14.02;64.31
56400;BME280;42298;53.638;9.876;2023-03-18T06:02:50;100580.75;;;13.95;64.57
56400;BME280;42298;53.638;9.876;2023-03-18T06:05:17;100599.88;;;14.08;64.12
56400;BME280;42298;53.638;9.876;2023-03-18T06:07:43;100601.84;;;14.08;64.65
56400;BME280;42298;53.638;9.876;2023-03-18T06:10:09;100596.50;;;14.03;65.03
56400;BME280;42298;53.638;9.876;2023-03-18T06:12:35;100590.00;;;13.99;65.25
56400;BME280;42298;53.638;9.876;2023-03-18T06:15:02;100583.53;;;13.95;64.69
56400;BME280;42298;53.638;9.876;2023-03-18T06:17:27;100611.06;;;13.91;65.30
56400;BME280;42298;53.638;9.876;2023-03-18T06:19:53;100621.41;;;14.03;64.43
56400;BME280;42298;53.638;9.876;2023-03-18T06:22:21;100600.94;;;13.95;64.90
56400;BME280;42298;53.638;9.876;2023-03-18T06:24:46;100594.47;;;13.91;65.30
56400;BME280;42298;53.638;9.876;2023-03-18T06:27:12;100607.44;;;13.99;65.29
56400;BME280;42298;53.638;9.876;2023-03-18T06:29:37;100607.72;;;14.06;65.44
56400;BME280;42298;53.638;9.876;2023-03-18T06:32:03;100605.75;;;14.07;65.33
56400;BME280;42298;53.638;9.876;2023-03-18T06:34:28;100604.47;;;14.04;65.50
56400;BME280;42298;53.638;9.876;2023-03-18T06:36:55;100609.47;;;14.11;65.26
56400;BME280;42298;53.638;9.876;2023-03-18T06:39:22;100614.00;;;14.15;65.26
56400;BME280;42298;53.638;9.876;2023-03-18T06:41:49;100606.97;;;14.18;64.65
56400;BME280;42298;53.638;9.876;2023-03-18T06:44:15;100603.25;;;14.14;65.09
56400;BME280;42298;53.638;9.876;2023-03-18T06:46:40;100610.72;;;14.22;64.82
56400;BME280;42298;53.638;9.876;2023-03-18T06:49:06;100612.28;;;14.31;64.84
56400;BME280;42298;53.638;9.876;2023-03-18T06:51:31;100606.41;;;14.33;64.60
56400;BME280;42298;53.638;9.876;2023-03-18T06:54:00;100619.91;;;14.34;64.68
56400;BME280;42298;53.638;9.876;2023-03-18T06:56:25;100630.59;;;14.44;64.41
56400;BME280;42298;53.638;9.876;2023-03-18T06:58:51;100610.59;;;14.39;64.49
56400;BME280;42298;53.638;9.876;2023-03-18T07:01:18;100629.63;;;14.61;64.25
56400;BME280;42298;53.638;9.876;2023-03-18T07:03:43;100648.97;;;14.69;64.29
56400;BME280;42298;53.638;9.876;2023-03-18T07:06:10;100645.97;;;14.74;64.18
56400;BME280;42298;53.638;9.876;2023-03-18T07:08:37;100656.72;;;14.76;64.11
56400;BME280;42298;53.638;9.876;2023-03-18T07:11:03;100661.16;;;14.77;63.29
56400;BME280;42298;53.638;9.876;2023-03-18T07:13:31;100646.31;;;14.73;63.80
56400;BME280;42298;53.638;9.876;2023-03-18T07:15:56;100638.16;;;14.76;63.84
56400;BME280;42298;53.638;9.876;2023-03-18T07:18:25;100655.53;;;14.85;63.32
56400;BME280;42298;53.638;9.876;2023-03-18T07:20:52;100667.44;;;14.86;63.29
56400;BME280;42298;53.638;9.876;2023-03-18T07:23:18;100673.72;;;14.95;62.78
56400;BME280;42298;53.638;9.876;2023-03-18T07:25:43;100673.47;;;15.00;62.92
56400;BME280;42298;53.638;9.876;2023-03-18T07:28:09;100681.50;;;15.13;63.61
56400;BME280;42298;53.638;9.876;2023-03-18T07:30:35;100674.03;;;15.26;62.58
56400;BME280;42298;53.638;9.876;2023-03-18T07:33:00;100684.13;;;15.30;62.24
56400;BME280;42298;53.638;9.876;2023-03-18T07:35:26;100679.72;;;15.29;62.53
56400;BME280;42298;53.638;9.876;2023-03-18T07:37:54;100676.88;;;15.38;62.33
56400;BME280;42298;53.638;9.876;2023-03-18T07:40:19;100686.13;;;15.42;62.02
56400;BME280;42298;53.638;9.876;2023-03-18T07:42:46;100694.50;;;15.54;61.78
56400;BME280;42298;53.638;9.876;2023-03-18T07:45:12;100682.91;;;15.52;61.64
56400;BME280;42298;53.638;9.876;2023-03-18T07:47:37;100694.97;;;15.56;61.41
56400;BME280;42298;53.638;9.876;2023-03-18T07:50:03;100687.03;;;15.34;61.54
56400;BME280;42298;53.638;9.876;2023-03-18T07:52:29;100693.09;;;15.48;62.25
56400;BME280;42298;53.638;9.876;2023-03-18T07:54:55;100704.88;;;15.45;61.75
56400;BME280;42298;53.638;9.876;2023-03-18T07:57:20;100715.44;;;15.52;61.66
56400;BME280;42298;53.638;9.876;2023-03-18T07:59:46;100697.72;;;15.44;61.34
56400;BME280;42298;53.638;9.876;2023-03-18T08:02:12;100721.66;;;15.49;61.83
56400;BME280;42298;53.638;9.876;2023-03-18T08:04:39;100710.81;;;15.56;61.80
56400;BME280;42298;53.638;9.876;2023-03-18T08:07:05;100713.09;;;15.54;61.39
56400;BME280;42298;53.638;9.876;2023-03-18T08:09:31;100715.31;;;15.60;61.67
56400;BME280;42298;53.638;9.876;2023-03-18T08:11:57;100720.06;;;15.72;61.40
56400;BME280;42298;53.638;9.876;2023-03-18T08:14:23;100717.09;;;15.77;60.99
56400;BME280;42298;53.638;9.876;2023-03-18T08:16:48;100729.81;;;15.78;60.98
56400;BME280;42298;53.638;9.876;2023-03-18T08:19:14;100710.47;;;15.69;61.16
56400;BME280;42298;53.638;9.876;2023-03-18T08:21:39;100730.97;;;15.77;60.81
56400;BME280;42298;53.638;9.876;2023-03-18T08:24:05;100744.53;;;15.90;61.15
56400;BME280;42298;53.638;9.876;2023-03-18T08:26:31;100732.72;;;15.93;60.69
56400;BME280;42298;53.638;9.876;2023-03-18T08:28:57;100738.75;;;15.95;60.66
56400;BME280;42298;53.638;9.876;2023-03-18T08:31:24;100741.19;;;15.97;60.44
56400;BME280;42298;53.638;9.876;2023-03-18T08:33:49;100740.16;;;16.01;60.62
56400;BME280;42298;53.638;9.876;2023-03-18T08:36:18;100744.22;;;16.04;60.85
56400;BME280;42298;53.638;9.876;2023-03-18T08:38:44;100756.59;;;16.06;60.36
56400;BME280;42298;53.638;9.876;2023-03-18T08:41:09;100753.00;;;16.06;59.59
56400;BME280;42298;53.638;9.876;2023-03-18T08:43:35;100753.56;;;15.87;59.80
56400;BME280;42298;53.638;9.876;2023-03-18T08:46:00;100750.53;;;15.80;60.24
56400;BME280;42298;53.638;9.876;2023-03-18T08:48:26;100763.75;;;15.83;60.38
56400;BME280;42298;53.638;9.876;2023-03-18T08:50:52;100775.19;;;15.82;60.44
56400;BME280;42298;53.638;9.876;2023-03-18T08:53:17;100772.75;;;15.80;60.69
56400;BME280;42298;53.638;9.876;2023-03-18T08:55:43;100773.56;;;15.81;60.94
56400;BME280;42298;53.638;9.876;2023-03-18T08:58:09;100792.53;;;15.79;60.79
56400;BME280;42298;53.638;9.876;2023-03-18T09:00:36;100785.78;;;15.68;60.93
56400;BME280;42298;53.638;9.876;2023-03-18T09:03:03;100787.53;;;15.72;61.07
56400;BME280;42298;53.638;9.876;2023-03-18T09:05:28;100795.53;;;15.74;61.29
56400;BME280;42298;53.638;9.876;2023-03-18T09:07:57;100791.00;;;15.69;62.03
56400;BME280;42298;53.638;9.876;2023-03-18T09:10:24;100802.50;;;15.80;61.95
56400;BME280;42298;53.638;9.876;2023-03-18T09:12:49;100790.44;;;15.76;62.01
56400;BME280;42298;53.638;9.876;2023-03-18T09:15:17;100793.56;;;15.74;61.99
56400;BME280;42298;53.638;9.876;2023-03-18T09:17:47;100802.69;;;15.75;61.87
56400;BME280;42298;53.638;9.876;2023-03-18T09:20:15;100801.56;;;15.76;62.58
56400;BME280;42298;53.638;9.876;2023-03-18T09:22:43;100805.94;;;15.77;62.39
56400;BME280;42298;53.638;9.876;2023-03-18T09:25:09;100814.88;;;15.82;62.26
56400;BME280;42298;53.638;9.876;2023-03-18T09:27:34;100818.13;;;15.84;62.70
56400;BME280;42298;53.638;9.876;2023-03-18T09:30:04;100803.50;;;15.75;61.71
56400;BME280;42298;53.638;9.876;2023-03-18T09:32:31;100802.16;;;15.81;62.23
56400;BME280;42298;53.638;9.876;2023-03-18T09:34:57;100804.56;;;15.83;62.88
56400;BME280;42298;53.638;9.876;2023-03-18T09:37:23;100806.91;;;15.93;62.49
56400;BME280;42298;53.638;9.876;2023-03-18T09:39:49;100824.63;;;16.00;62.22
56400;BME280;42298;53.638;9.876;2023-03-18T09:42:31;100825.34;;;16.09;62.38
56400;BME280;42298;53.638;9.876;2023-03-18T09:45:18;100827.91;;;16.14;62.18
56400;BME280;42298;53.638;9.876;2023-03-18T09:48:06;100828.16;;;16.21;62.20
56400;BME280;42298;53.638;9.876;2023-03-18T09:53:19;100829.63;;;16.07;61.78
56400;BME280;42298;53.638;9.876;2023-03-18T09:55:49;100837.31;;;16.22;62.49
56400;BME280;42298;53.638;9.876;2023-03-18T09:58:32;100821.13;;;16.36;61.75
56400;BME280;42298;53.638;9.876;2023-03-18T10:01:05;100828.44;;;16.52;61.31
56400;BME280;42298;53.638;9.876;2023-03-18T10:06:23;100818.91;;;17.01;60.09
56400;BME280;42298;53.638;9.876;2023-03-18T10:11:45;100853.50;;;17.68;58.28
56400;BME280;42298;53.638;9.876;2023-03-18T10:14:23;100842.50;;;17.71;57.91
56400;BME280;42298;53.638;9.876;2023-03-18T10:19:27;100829.44;;;18.03;57.68
56400;BME280;42298;53.638;9.876;2023-03-18T10:22:03;100848.16;;;18.18;56.91
56400;BME280;42298;53.638;9.876;2023-03-18T10:24:41;100839.44;;;18.19;56.51
56400;BME280;42298;53.638;9.876;2023-03-18T10:27:17;100830.25;;;18.19;56.24
56400;BME280;42298;53.638;9.876;2023-03-18T10:33:28;100837.81;;;18.34;56.56
56400;BME280;42298;53.638;9.876;2023-03-18T10:36:11;100842.47;;;18.42;56.53
56400;BME280;42298;53.638;9.876;2023-03-18T10:38:42;100819.13;;;18.50;55.24
56400;BME280;42298;53.638;9.876;2023-03-18T10:41:32;100835.44;;;18.98;55.92
56400;BME280;42298;53.638;9.876;2023-03-18T10:44:29;100825.25;;;19.59;54.85
56400;BME280;42298;53.638;9.876;2023-03-18T10:47:01;100836.50;;;20.01;53.26
56400;BME280;42298;53.638;9.876;2023-03-18T10:49:33;100832.88;;;20.00;51.78
56400;BME280;42298;53.638;9.876;2023-03-18T10:52:29;100822.22;;;19.87;52.14
56400;BME280;42298;53.638;9.876;2023-03-18T10:54:57;100844.78;;;19.97;52.42
56400;BME280;42298;53.638;9.876;2023-03-18T10:57:23;100855.03;;;19.90;52.51
56400;BME280;42298;53.638;9.876;2023-03-18T10:59:51;100852.53;;;19.85;51.45
56400;BME280;42298;53.638;9.876;2023-03-18T11:02:31;100848.56;;;19.67;52.81
56400;BME280;42298;53.638;9.876;2023-03-18T11:05:26;100864.03;;;19.80;52.08
56400;BME280;42298;53.638;9.876;2023-03-18T11:08:04;100863.63;;;19.62;52.32
56400;BME280;42298;53.638;9.876;2023-03-18T11:10:43;100875.56;;;19.78;52.46
56400;BME280;42298;53.638;9.876;2023-03-18T11:13:18;100853.63;;;19.99;51.68
56400;BME280;42298;53.638;9.876;2023-03-18T11:15:53;100844.94;;;20.23;50.78
56400;BME280;42298;53.638;9.876;2023-03-18T11:18:24;100843.56;;;20.36;49.28
56400;BME280;42298;53.638;9.876;2023-03-18T11:20:55;100839.75;;;20.25;50.42
56400;BME280;42298;53.638;9.876;2023-03-18T11:23:34;100867.75;;;20.48;50.67
56400;BME280;42298;53.638;9.876;2023-03-18T11:26:44;100867.09;;;20.58;50.94
56400;BME280;42298;53.638;9.876;2023-03-18T11:29:15;100848.44;;;20.65;50.36
56400;BME280;42298;53.638;9.876;2023-03-18T11:34:19;100861.31;;;20.70;48.36
56400;BME280;42298;53.638;9.876;2023-03-18T11:36:59;100870.22;;;20.75;48.82
56400;BME280;42298;53.638;9.876;2023-03-18T11:39:30;100863.06;;;20.55;49.21
56400;BME280;42298;53.638;9.876;2023-03-18T11:41:58;100847.13;;;20.59;50.02
56400;BME280;42298;53.638;9.876;2023-03-18T11:44:32;100848.78;;;20.87;49.89
56400;BME280;42298;53.638;9.876;2023-03-18T11:47:18;100870.94;;;21.21;49.20
56400;BME280;42298;53.638;9.876;2023-03-18T11:49:46;100857.47;;;21.30;48.59
56400;BME280;42298;53.638;9.876;2023-03-18T11:52:31;100863.84;;;21.57;48.09
56400;BME280;42298;53.638;9.876;2023-03-18T12:00:58;100865.91;;;21.89;46.88
56400;BME280;42298;53.638;9.876;2023-03-18T12:06:40;100865.00;;;21.52;46.72
56400;BME280;42298;53.638;9.876;2023-03-18T12:14:46;100863.06;;;21.30;47.27
56400;BME280;42298;53.638;9.876;2023-03-18T12:17:39;100897.81;;;21.52;47.70
56400;BME280;42298;53.638;9.876;2023-03-18T12:23:09;100877.44;;;21.25;47.68
56400;BME280;42298;53.638;9.876;2023-03-18T12:26:05;100884.88;;;21.14;47.33
56400;BME280;42298;53.638;9.876;2023-03-18T12:31:30;100890.97;;;20.74;48.42
56400;BME280;42298;53.638;9.876;2023-03-18T12:34:03;100873.63;;;20.65;48.67
56400;BME280;42298;53.638;9.876;2023-03-18T12:36:45;100884.53;;;20.70;48.11
56400;BME280;42298;53.638;9.876;2023-03-18T12:42:15;100885.91;;;20.80;47.61
56400;BME280;42298;53.638;9.876;2023-03-18T12:50:21;100887.16;;;21.35;47.67
56400;BME280;42298;53.638;9.876;2023-03-18T12:52:52;100880.28;;;21.29;46.79
56400;BME280;42298;53.638;9.876;2023-03-18T12:55:27;100888.28;;;21.30;46.60
56400;BME280;42298;53.638;9.876;2023-03-18T12:58:10;100881.00;;;21.52;46.75
56400;BME280;42298;53.638;9.876;2023-03-18T13:03:36;100894.59;;;21.50;45.92
56400;BME280;42298;53.638;9.876;2023-03-18T13:06:14;100875.38;;;21.22;46.13
56400;BME280;42298;53.638;9.876;2023-03-18T13:09:06;100895.00;;;21.22;46.54
56400;BME280;42298;53.638;9.876;2023-03-18T13:17:11;100888.84;;;21.13;47.00
56400;BME280;42298;53.638;9.876;2023-03-18T13:19:40;100884.69;;;21.04;47.59
56400;BME280;42298;53.638;9.876;2023-03-18T13:25:17;100882.75;;;21.08;47.82
56400;BME280;42298;53.638;9.876;2023-03-18T13:27:56;100898.59;;;21.23;48.03
56400;BME280;42298;53.638;9.876;2023-03-18T13:30:50;100895.91;;;21.30;47.35
56400;BME280;42298;53.638;9.876;2023-03-18T13:36:51;100895.69;;;21.16;48.19
56400;BME280;42298;53.638;9.876;2023-03-18T13:45:10;100896.22;;;20.99;47.84
56400;BME280;42298;53.638;9.876;2023-03-18T13:47:41;100903.25;;;20.89;48.43
56400;BME280;42298;53.638;9.876;2023-03-18T13:52:45;100893.16;;;21.07;48.47
56400;BME280;42298;53.638;9.876;2023-03-18T13:55:39;100880.47;;;21.13;47.89
56400;BME280;42298;53.638;9.876;2023-03-18T13:58:24;100898.00;;;21.36;47.27
56400;BME280;42298;53.638;9.876;2023-03-18T14:13:38;100883.13;;;20.83;48.23
56400;BME280;42298;53.638;9.876;2023-03-18T14:16:08;100888.88;;;20.91;48.38
56400;BME280;42298;53.638;9.876;2023-03-18T14:18:35;100878.84;;;20.90;48.44
56400;BME280;42298;53.638;9.876;2023-03-18T14:21:03;100886.75;;;21.07;48.29
56400;BME280;42298;53.638;9.876;2023-03-18T14:23:37;100895.06;;;21.00;47.81
56400;BME280;42298;53.638;9.876;2023-03-18T14:31:31;100893.91;;;21.04;47.81
56400;BME280;42298;53.638;9.876;2023-03-18T14:33:59;100891.28;;;20.92;47.75
56400;BME280;42298;53.638;9.876;2023-03-18T14:39:16;100888.06;;;20.67;46.79